createdAt,value
2023-08-14T00:01:44.260Z,35.77
2023-08-14T00:04:46.885Z,12.10
2023-08-14T00:07:49.453Z,8.50
2023-08-14T00:10:51.955Z,7.65
2023-08-14T00:13:57.605Z,7.27
2023-08-14T00:17:00.277Z,7.90
2023-08-14T00:20:04.182Z,7.30
2023-08-14T00:23:06.854Z,7.20
2023-08-14T00:26:11.024Z,7.88
2023-08-14T00:29:13.703Z,7.50
2023-08-14T00:32:16.404Z,7.23
2023-08-14T00:35:19.107Z,6.57
2023-08-14T00:38:21.532Z,6.50
2023-08-14T00:41:24.121Z,6.45
2023-08-14T00:44:26.607Z,8.30
2023-08-14T00:47:29.294Z,8.67
2023-08-14T00:50:31.835Z,8.23
2023-08-14T00:53:34.549Z,13.27
2023-08-14T00:56:37.085Z,21.90
2023-08-14T00:59:39.612Z,39.13
2023-08-14T01:02:43.612Z,33.03
2023-08-14T01:05:46.746Z,162.48
2023-08-14T01:08:49.481Z,74.88
2023-08-14T01:12:09.218Z,75.43
2023-08-14T01:15:15.472Z,140.10
2023-08-14T01:18:19.070Z,118.63
2023-08-14T01:21:30.200Z,61.90
2023-08-14T01:25:00.787Z,36.00
2023-08-14T01:28:03.542Z,24.90
2023-08-14T01:31:06.289Z,32.47
2023-08-14T01:34:09.059Z,36.20
2023-08-14T01:37:26.636Z,30.20
2023-08-14T01:40:41.482Z,27.40
2023-08-14T01:43:48.978Z,24.95
2023-08-14T01:46:52.080Z,24.57
2023-08-14T01:49:54.952Z,23.43
2023-08-14T01:52:57.548Z,21.75
2023-08-14T01:56:00.099Z,16.75
2023-08-14T01:59:02.702Z,15.75
2023-08-14T02:02:05.234Z,14.37
2023-08-14T02:05:07.751Z,14.63
2023-08-14T02:08:10.209Z,13.75
2023-08-14T02:11:12.700Z,13.55
2023-08-14T02:14:15.190Z,12.95
2023-08-14T02:17:17.877Z,12.57
2023-08-14T02:20:20.438Z,12.13
2023-08-14T02:23:23.007Z,12.02
2023-08-14T02:26:25.433Z,9.75
2023-08-14T02:29:27.913Z,12.82
2023-08-14T02:32:30.408Z,12.00
2023-08-14T02:35:35.269Z,11.40
2023-08-14T02:38:37.692Z,12.43
2023-08-14T02:41:41.115Z,13.15
2023-08-14T02:44:43.686Z,14.40
2023-08-14T02:47:46.235Z,14.03
2023-08-14T02:50:48.747Z,14.20
2023-08-14T02:53:51.254Z,13.02
2023-08-14T02:56:54.983Z,11.98
2023-08-14T02:59:57.841Z,11.32
2023-08-14T03:03:00.552Z,20.63
2023-08-14T03:06:03.190Z,118.30
2023-08-14T03:09:05.812Z,74.53
2023-08-14T03:12:08.650Z,26.50
2023-08-14T03:15:11.122Z,13.25
2023-08-14T03:18:13.570Z,11.87
2023-08-14T03:21:16.156Z,12.13
2023-08-14T03:24:18.737Z,11.73
2023-08-14T03:27:21.248Z,10.98
2023-08-14T03:30:23.703Z,12.05
2023-08-14T03:33:27.141Z,12.20
2023-08-14T03:36:31.091Z,12.23
2023-08-14T03:39:35.356Z,12.52
2023-08-14T03:42:39.168Z,12.73
2023-08-14T03:45:41.593Z,14.20
2023-08-14T03:48:44.251Z,12.57
2023-08-14T03:51:47.533Z,11.77
2023-08-14T03:54:50.780Z,11.23
2023-08-14T03:57:53.225Z,12.75
2023-08-14T04:00:55.690Z,12.38
2023-08-14T04:03:58.160Z,11.40
2023-08-14T04:07:00.884Z,11.77
2023-08-14T04:10:04.448Z,13.02
2023-08-14T04:13:08.279Z,11.82
2023-08-14T04:16:10.954Z,10.82
2023-08-14T04:19:18.329Z,11.37
2023-08-14T04:22:21.206Z,12.33
2023-08-14T04:25:23.853Z,11.15
2023-08-14T04:28:26.306Z,10.48
2023-08-14T04:31:28.783Z,10.68
2023-08-14T04:34:31.468Z,10.77
2023-08-14T04:37:33.899Z,9.90
2023-08-14T04:40:36.616Z,9.95
2023-08-14T04:43:39.103Z,9.88
2023-08-14T04:46:57.598Z,9.30
2023-08-14T04:50:04.440Z,8.23
2023-08-14T04:53:07.576Z,7.50
2023-08-14T04:56:11.791Z,34.92
2023-08-14T04:59:14.318Z,17.77
2023-08-14T05:02:17.131Z,16.55
2023-08-14T05:05:20.968Z,11.03
2023-08-14T05:08:23.547Z,8.20
2023-08-14T05:11:26.029Z,8.27
2023-08-14T05:14:28.592Z,13.38
2023-08-14T05:17:31.944Z,15.38
2023-08-14T05:20:35.432Z,25.87
2023-08-14T05:23:38.355Z,8.53
2023-08-14T05:26:40.864Z,8.40
2023-08-14T05:29:44.935Z,8.02
2023-08-14T05:32:50.038Z,7.97
2023-08-14T05:35:52.600Z,7.83
2023-08-14T05:38:55.302Z,7.40
2023-08-14T05:41:57.859Z,7.75
2023-08-14T05:45:00.358Z,7.47
2023-08-14T05:48:04.105Z,8.27
2023-08-14T05:51:06.685Z,7.53
2023-08-14T05:54:10.100Z,7.80
2023-08-14T05:57:12.653Z,34.22
2023-08-14T06:00:16.060Z,19.23
2023-08-14T06:03:28.971Z,8.18
2023-08-14T06:06:36.092Z,8.00
2023-08-14T06:09:38.536Z,8.17
2023-08-14T06:12:41.261Z,7.18
2023-08-14T06:15:43.687Z,7.72
2023-08-14T06:18:46.255Z,7.15
2023-08-14T06:21:48.681Z,11.23
2023-08-14T06:24:51.166Z,7.30
2023-08-14T06:27:53.596Z,7.25
2023-08-14T06:30:56.079Z,7.45
2023-08-14T06:33:58.701Z,7.85
2023-08-14T06:37:01.493Z,7.57
2023-08-14T06:40:05.121Z,7.60
2023-08-14T06:43:07.838Z,6.72
2023-08-14T06:46:10.394Z,7.00
2023-08-14T06:49:12.988Z,6.85
2023-08-14T06:52:15.409Z,7.10
2023-08-14T06:55:17.963Z,7.97
2023-08-14T06:58:20.406Z,7.30
2023-08-14T07:01:23.443Z,7.65
2023-08-14T07:04:26.099Z,7.28
2023-08-14T07:07:28.632Z,7.63
2023-08-14T07:10:31.129Z,7.67
2023-08-14T07:13:33.572Z,7.75
2023-08-14T07:16:37.162Z,7.63
2023-08-14T07:19:39.632Z,6.65
2023-08-14T07:22:42.185Z,6.20
2023-08-14T07:25:45.309Z,6.67
2023-08-14T07:28:47.778Z,6.10
2023-08-14T07:31:50.331Z,6.75
2023-08-14T07:34:52.740Z,9.43
2023-08-14T07:37:55.357Z,5.97
2023-08-14T07:40:57.855Z,8.63
2023-08-14T07:44:00.365Z,8.90
2023-08-14T07:47:02.872Z,5.70
2023-08-14T07:50:06.006Z,6.45
2023-08-14T07:53:08.527Z,5.57
2023-08-14T07:56:11.013Z,6.03
2023-08-14T07:59:13.527Z,6.65
2023-08-14T08:02:16.257Z,5.78
2023-08-14T08:05:20.554Z,5.50
2023-08-14T08:08:23.437Z,6.33
2023-08-14T08:11:25.912Z,6.50
2023-08-14T08:14:28.439Z,5.38
2023-08-14T08:17:30.920Z,7.25
2023-08-14T08:20:33.516Z,5.53
2023-08-14T08:23:36.006Z,7.93
2023-08-14T08:26:38.478Z,5.67
2023-08-14T08:29:40.986Z,5.38
2023-08-14T08:32:43.541Z,30.88
2023-08-14T08:35:46.104Z,6.00
2023-08-14T08:38:48.724Z,5.10
2023-08-14T08:41:52.138Z,5.00
2023-08-14T08:44:55.840Z,5.22
2023-08-14T08:48:01.133Z,5.35
2023-08-14T08:51:04.021Z,4.95
2023-08-14T08:54:07.165Z,5.30
2023-08-14T08:57:09.904Z,5.13
2023-08-14T09:00:12.886Z,5.47
2023-08-14T09:03:15.429Z,5.10
2023-08-14T09:06:18.096Z,5.25
2023-08-14T09:09:20.830Z,4.90
2023-08-14T09:12:23.296Z,5.33
2023-08-14T09:15:26.243Z,4.28
2023-08-14T09:18:28.859Z,5.10
2023-08-14T09:21:31.431Z,5.40
2023-08-14T09:24:38.064Z,5.17
2023-08-14T09:27:40.982Z,10.13
2023-08-14T09:30:44.326Z,5.47
2023-08-14T09:33:46.830Z,4.88
2023-08-14T09:36:50.669Z,5.03
2023-08-14T09:40:22.759Z,4.90
2023-08-14T09:43:26.045Z,4.33
2023-08-14T09:46:29.846Z,8.55
2023-08-14T09:49:32.313Z,5.32
2023-08-14T09:52:35.267Z,5.30
2023-08-14T09:55:37.987Z,5.27
2023-08-14T09:58:41.807Z,5.17
2023-08-14T10:01:44.274Z,4.93
2023-08-14T10:04:47.921Z,5.50
2023-08-14T10:07:50.736Z,5.80
2023-08-14T10:11:05.766Z,5.30
2023-08-14T10:14:16.245Z,6.50
2023-08-14T10:17:22.614Z,5.25
2023-08-14T10:20:25.930Z,5.45
2023-08-14T10:23:28.736Z,6.53
2023-08-14T10:26:33.700Z,5.57
2023-08-14T10:29:36.475Z,5.53
2023-08-14T10:32:39.720Z,5.13
2023-08-14T10:35:55.265Z,4.97
2023-08-14T10:39:19.028Z,5.50
2023-08-14T10:42:23.470Z,5.87
2023-08-14T10:45:27.242Z,10.60
2023-08-14T10:48:36.756Z,5.50
2023-08-14T10:51:41.703Z,5.50
2023-08-14T10:54:51.879Z,5.20
2023-08-14T10:57:55.367Z,5.00
2023-08-14T11:00:58.971Z,7.37
2023-08-14T11:04:06.898Z,6.28
2023-08-14T11:07:13.091Z,5.35
2023-08-14T11:10:15.874Z,5.80
2023-08-14T11:13:18.643Z,7.30
2023-08-14T11:16:21.947Z,7.33
2023-08-14T11:19:24.650Z,10.23
2023-08-14T11:22:27.234Z,8.13
2023-08-14T11:25:29.751Z,5.43
2023-08-14T11:28:35.016Z,7.13
2023-08-14T11:31:44.792Z,5.30
2023-08-14T11:34:52.599Z,5.15
2023-08-14T11:37:56.324Z,5.22
2023-08-14T11:40:58.785Z,5.38
2023-08-14T11:44:01.256Z,6.47
2023-08-14T11:47:04.755Z,5.83
2023-08-14T11:50:10.177Z,5.63
2023-08-14T11:53:12.957Z,4.97
2023-08-14T11:56:15.643Z,5.15
2023-08-14T11:59:19.292Z,4.73
2023-08-14T12:02:22.221Z,5.10
2023-08-14T12:05:24.963Z,5.38
2023-08-14T12:08:30.939Z,5.90
2023-08-14T12:11:33.390Z,5.05
2023-08-14T12:14:40.112Z,5.47
2023-08-14T12:17:44.049Z,4.90
2023-08-14T12:20:55.657Z,5.65
2023-08-14T12:23:58.106Z,6.32
2023-08-14T12:27:00.639Z,5.85
2023-08-14T12:30:04.022Z,5.17
2023-08-14T12:33:06.687Z,5.70
2023-08-14T12:36:12.445Z,5.60
2023-08-14T12:39:14.903Z,4.35
2023-08-14T12:42:18.062Z,5.82
2023-08-14T12:45:20.616Z,6.10
2023-08-14T12:48:23.242Z,5.27
2023-08-14T12:51:25.802Z,5.72
2023-08-14T12:54:28.380Z,4.47
2023-08-14T12:57:31.164Z,5.32
2023-08-14T13:00:34.013Z,5.90
2023-08-14T13:03:37.776Z,5.80
2023-08-14T13:06:40.971Z,5.75
2023-08-14T13:09:43.600Z,5.70
2023-08-14T13:12:46.123Z,5.22
2023-08-14T13:15:48.595Z,4.97
2023-08-14T13:18:51.058Z,5.67
2023-08-14T13:21:53.455Z,5.32
2023-08-14T13:24:56.016Z,5.60
2023-08-14T13:27:58.478Z,5.55
2023-08-14T13:31:00.957Z,5.17
2023-08-14T13:34:03.517Z,5.17
2023-08-14T13:37:05.976Z,5.95
2023-08-14T13:40:09.097Z,5.57
2023-08-14T13:43:11.653Z,5.97
2023-08-14T13:46:14.123Z,5.70
2023-08-14T13:49:16.648Z,6.60
2023-08-14T13:52:19.162Z,5.78
2023-08-14T13:55:21.787Z,5.53
2023-08-14T13:58:25.004Z,6.32
2023-08-14T14:01:27.769Z,6.53
2023-08-14T14:04:30.525Z,4.93
2023-08-14T14:07:42.024Z,5.72
2023-08-14T14:10:49.139Z,6.80
2023-08-14T14:13:51.614Z,5.55
2023-08-14T14:16:59.399Z,6.30
2023-08-14T14:20:02.064Z,5.60
2023-08-14T14:23:04.995Z,5.88
2023-08-14T14:26:07.465Z,5.68
2023-08-14T14:29:09.912Z,6.40
2023-08-14T14:32:12.342Z,5.77
2023-08-14T14:35:15.311Z,6.37
2023-08-14T14:38:17.920Z,5.55
2023-08-14T14:41:20.415Z,5.80
2023-08-14T14:44:22.912Z,6.03
2023-08-14T14:47:25.763Z,6.37
2023-08-14T14:50:30.623Z,5.93
2023-08-14T14:53:33.476Z,6.20
2023-08-14T14:56:35.912Z,6.28
2023-08-14T14:59:38.318Z,5.85
2023-08-14T15:02:40.781Z,5.90
2023-08-14T15:05:43.294Z,6.63
2023-08-14T15:08:45.728Z,5.78
2023-08-14T15:11:48.143Z,6.60
2023-08-14T15:14:50.600Z,6.22
2023-08-14T15:17:53.203Z,6.37
2023-08-14T15:20:56.263Z,6.13
2023-08-14T15:23:58.735Z,6.00
2023-08-14T15:27:01.228Z,5.32
2023-08-14T15:30:04.062Z,5.32
2023-08-14T15:33:06.661Z,5.93
2023-08-14T15:36:09.190Z,5.63
2023-08-14T15:39:11.633Z,6.38
2023-08-14T15:42:14.103Z,5.28
2023-08-14T15:45:16.519Z,5.50
2023-08-14T15:48:18.994Z,4.60
2023-08-14T15:51:22.868Z,4.93
2023-08-14T15:54:26.076Z,5.25
2023-08-14T15:57:28.717Z,4.90
2023-08-14T16:00:31.230Z,4.68
2023-08-14T16:03:33.779Z,5.07
2023-08-14T16:06:36.252Z,5.33
2023-08-14T16:09:39.045Z,4.95
2023-08-14T16:12:41.507Z,5.22
2023-08-14T16:15:44.171Z,5.35
2023-08-14T16:18:46.642Z,6.43
2023-08-14T16:21:49.124Z,5.30
2023-08-14T16:24:51.571Z,5.18
2023-08-14T16:27:54.010Z,5.22
2023-08-14T16:30:56.584Z,5.13
2023-08-14T16:33:59.057Z,5.20
2023-08-14T16:37:01.569Z,5.07
2023-08-14T16:40:04.936Z,5.20
2023-08-14T16:43:07.447Z,4.93
2023-08-14T16:46:09.941Z,5.82
2023-08-14T16:49:12.412Z,6.13
2023-08-14T16:52:14.915Z,5.10
2023-08-14T16:55:17.784Z,5.22
2023-08-14T16:58:20.360Z,5.68
2023-08-14T17:01:22.835Z,5.68
2023-08-14T17:04:25.359Z,5.63
2023-08-14T17:07:27.868Z,5.80
2023-08-14T17:10:31.539Z,8.90
2023-08-14T17:13:34.226Z,6.25
2023-08-14T17:16:36.939Z,5.60
2023-08-14T17:19:39.472Z,9.93
2023-08-14T17:22:42.477Z,7.00
2023-08-14T17:25:45.521Z,7.68
2023-08-14T17:28:47.941Z,6.50
2023-08-14T17:31:50.962Z,7.35
2023-08-14T17:34:53.422Z,8.10
2023-08-14T17:37:55.850Z,9.50
2023-08-14T17:40:58.313Z,20.90
2023-08-14T17:44:00.771Z,14.40
2023-08-14T17:47:04.267Z,48.08
2023-08-14T17:50:07.025Z,16.70
2023-08-14T17:53:09.693Z,16.50
2023-08-14T17:56:12.176Z,16.60
2023-08-14T17:59:14.612Z,17.13
2023-08-14T18:02:17.099Z,15.23
2023-08-14T18:05:19.547Z,14.53
2023-08-14T18:08:22.703Z,11.83
2023-08-14T18:11:25.225Z,10.35
2023-08-14T18:14:27.788Z,9.13
2023-08-14T18:17:30.387Z,15.15
2023-08-14T18:20:33.305Z,62.30
2023-08-14T18:23:35.814Z,40.33
2023-08-14T18:26:38.443Z,51.72
2023-08-14T18:29:40.970Z,30.80
2023-08-14T18:32:43.533Z,28.85
2023-08-14T18:35:46.199Z,20.20
2023-08-14T18:38:48.721Z,11.30
2023-08-14T18:41:51.311Z,8.98
2023-08-14T18:44:53.797Z,7.20
2023-08-14T18:47:56.370Z,6.55
2023-08-14T18:50:58.896Z,6.60
2023-08-14T18:54:02.919Z,5.83
2023-08-14T18:57:05.640Z,6.00
2023-08-14T19:00:11.093Z,6.03
2023-08-14T19:03:14.156Z,5.70
2023-08-14T19:06:16.640Z,5.30
2023-08-14T19:09:19.115Z,5.37
2023-08-14T19:12:21.587Z,5.78
2023-08-14T19:15:24.060Z,5.40
2023-08-14T19:18:27.462Z,5.15
2023-08-14T19:21:29.880Z,5.70
2023-08-14T19:24:32.332Z,5.50
2023-08-14T19:27:34.816Z,6.22
2023-08-14T19:30:39.561Z,15.75
2023-08-14T19:33:41.993Z,11.68
2023-08-14T19:36:44.450Z,10.03
2023-08-14T19:39:46.950Z,7.40
2023-08-14T19:42:49.367Z,7.40
2023-08-14T19:45:51.783Z,6.90
2023-08-14T19:48:54.330Z,5.78
2023-08-14T19:51:57.041Z,6.30
2023-08-14T19:54:59.546Z,6.37
2023-08-14T19:58:02.004Z,6.57
2023-08-14T20:01:04.560Z,6.28
2023-08-14T20:04:07.142Z,6.28
2023-08-14T20:07:09.824Z,6.07
2023-08-14T20:10:12.342Z,6.20
2023-08-14T20:13:14.979Z,8.50
2023-08-14T20:16:21.345Z,6.40
2023-08-14T20:19:25.446Z,9.95
2023-08-14T20:22:28.296Z,10.17
2023-08-14T20:25:30.816Z,6.90
2023-08-14T20:28:36.232Z,6.15
2023-08-14T20:31:38.730Z,6.20
2023-08-14T20:34:41.177Z,7.03
2023-08-14T20:37:43.626Z,6.57
2023-08-14T20:40:46.334Z,6.00
2023-08-14T20:43:49.307Z,5.40
2023-08-14T20:46:51.740Z,6.05
2023-08-14T20:49:54.646Z,5.75
2023-08-14T20:52:57.133Z,5.37
2023-08-14T20:55:59.878Z,5.87
2023-08-14T20:59:02.403Z,6.15
2023-08-14T21:02:05.103Z,5.85
2023-08-14T21:05:07.921Z,6.03
2023-08-14T21:08:10.438Z,6.10
2023-08-14T21:11:15.191Z,6.27
2023-08-14T21:14:17.702Z,5.85
2023-08-14T21:17:20.592Z,5.93
2023-08-14T21:20:23.520Z,5.65
2023-08-14T21:23:26.026Z,5.80
2023-08-14T21:26:29.657Z,5.83
2023-08-14T21:29:32.179Z,6.15
2023-08-14T21:32:36.267Z,6.28
2023-08-14T21:35:38.784Z,6.00
2023-08-14T21:38:41.230Z,6.03
2023-08-14T21:41:43.698Z,5.60
2023-08-14T21:44:46.181Z,6.82
2023-08-14T21:47:48.773Z,6.75
2023-08-14T21:50:51.492Z,6.82
2023-08-14T21:53:53.955Z,6.70
2023-08-14T21:56:56.377Z,8.23
2023-08-14T21:59:58.881Z,6.70
2023-08-14T22:03:01.361Z,6.78
2023-08-14T22:06:04.682Z,6.63
2023-08-14T22:09:07.544Z,6.90
2023-08-14T22:12:10.074Z,7.20
2023-08-14T22:15:12.577Z,10.88
2023-08-14T22:18:16.043Z,8.30
2023-08-14T22:21:18.713Z,8.75
2023-08-14T22:24:38.499Z,7.17
2023-08-14T22:27:42.633Z,6.93
2023-08-14T22:30:45.124Z,7.15
2023-08-14T22:33:47.615Z,7.18
2023-08-14T22:36:50.127Z,6.55
2023-08-14T22:39:52.591Z,6.60
2023-08-14T22:42:55.951Z,7.30
2023-08-14T22:45:58.459Z,7.00
2023-08-14T22:49:01.045Z,8.05
2023-08-14T22:52:03.632Z,7.72
2023-08-14T22:55:06.494Z,6.97
2023-08-14T22:58:09.900Z,6.63
2023-08-14T23:01:12.422Z,7.53
2023-08-14T23:04:15.041Z,7.07
2023-08-14T23:07:17.970Z,7.57
2023-08-14T23:10:20.829Z,7.63
2023-08-14T23:13:23.467Z,7.60
2023-08-14T23:16:27.134Z,7.32
2023-08-14T23:19:29.624Z,7.35
2023-08-14T23:22:33.749Z,7.15
2023-08-14T23:25:36.305Z,6.50
2023-08-14T23:28:38.794Z,7.10
2023-08-14T23:31:41.225Z,7.05
2023-08-14T23:34:43.708Z,6.45
2023-08-14T23:37:46.179Z,6.68
2023-08-14T23:40:48.583Z,7.57
2023-08-14T23:43:50.997Z,7.23
2023-08-14T23:46:53.503Z,7.72
2023-08-14T23:49:55.985Z,7.38
2023-08-14T23:52:58.416Z,7.75
2023-08-14T23:56:00.900Z,7.73
2023-08-14T23:59:03.627Z,7.57
